createdAt,value
2023-01-30T00:06:21.555Z,92.40001
2023-01-30T00:36:39.373Z,95.1
2023-01-30T01:06:56.046Z,95.5
2023-01-30T01:37:14.670Z,95.5
2023-01-30T02:07:31.404Z,95.7
2023-01-30T02:37:48.206Z,96.3
2023-01-30T03:08:05.288Z,96.6
2023-01-30T03:38:22.766Z,96.6
2023-01-30T04:08:41.939Z,97.1
2023-01-30T04:39:00.684Z,97.5
2023-01-30T05:09:19.052Z,97.2
2023-01-30T05:39:38.186Z,97.3
2023-01-30T06:09:56.560Z,97.2
2023-01-30T06:40:14.775Z,98.1
2023-01-30T07:10:33.689Z,97.80001
2023-01-30T07:40:51.250Z,99.3
2023-01-30T08:11:09.204Z,99.90001
2023-01-30T08:41:27.407Z,99.3
2023-01-30T09:42:07.171Z,94.00001
2023-01-30T10:12:28.969Z,93.6
2023-01-30T10:42:47.683Z,90.9
2023-01-30T11:13:10.996Z,87.80001
2023-01-30T11:43:31.455Z,85.80001
2023-01-30T12:13:48.313Z,87.7
2023-01-30T12:44:03.535Z,88.2
2023-01-30T13:14:20.491Z,87.9
2023-01-30T13:44:39.407Z,89.00001
2023-01-30T14:14:58.329Z,92.3
2023-01-30T14:45:16.143Z,97.7
2023-01-30T15:15:32.420Z,96.1
2023-01-30T15:45:50.865Z,92.1
2023-01-30T16:16:07.564Z,92.9
2023-01-30T16:46:23.012Z,91.1
2023-01-30T17:16:40.758Z,89.2
2023-01-30T17:46:58.948Z,89.1
2023-01-30T18:17:17.531Z,89.3
2023-01-30T18:47:34.871Z,87.6
2023-01-30T19:17:52.331Z,87
2023-01-30T19:48:10.631Z,86.3
2023-01-30T20:18:28.842Z,86.2
2023-01-30T20:48:45.153Z,85.7
2023-01-30T21:19:04.098Z,86.50001
2023-01-30T21:49:21.443Z,88.2
2023-01-30T22:19:37.546Z,92.7
2023-01-30T22:49:55.256Z,94.2
2023-01-30T23:20:11.519Z,94.3
2023-01-30T23:50:28.572Z,96.6
